aviador You're here:

LFPT Decoded Metar

PONTOISE in FRANCE
Report Time2017-08-22 16:30:00
UTC Time2017-08-22 16:38:46
Flight Rules vfr VFR
Wind070° at 07 kt
W.Decomp.*RWY 05: 6.5 kt HW 2.5 kt RCW
RWY 12: 4.6 kt HW 5.3 kt LCW
W.Rank070° ranks 14
Current wind is above 070° avg. (5.7)
Visibility9999 m
Phenomena:N/A
Clouds:N/A
Expected CloudBase > 4,000 ft AGL from Temp-Dew spread
CeilingNone
Temp27°C (ISA +13)
Dew Point17°C (54% RH)
Heat Index27.7°C
AAT26.8°C
QNH1016 hPa
Density Alt1,939 ft
Elevation325 ft
Report Wrong Elevation
Raw Report
METAR LFPT 221630Z AUTO 07007KT CAVOK 27/17 Q1016=

Extra information for LFPT:More info

Metar Taf Metar & Taf Last 4 Metars F.Rules Stats Wind Profile Meteogram Temp Stats Airport Information Weather charts Add Link Nearby VenuesMetar ALERT Operation Metar Decoded Social comments